createdAt,value
2018-12-12T00:00:35.101Z,107.03
2018-12-12T00:02:42.325Z,116.07
2018-12-12T00:04:49.270Z,118.00
2018-12-12T00:06:57.291Z,118.50
2018-12-12T00:09:04.630Z,117.27
2018-12-12T00:11:12.585Z,119.10
2018-12-12T00:13:22.836Z,121.13
2018-12-12T00:15:32.173Z,121.63
2018-12-12T00:17:39.743Z,133.17
2018-12-12T00:19:47.250Z,124.73
2018-12-12T00:21:54.223Z,121.97
2018-12-12T00:24:01.065Z,114.67
2018-12-12T00:26:07.822Z,116.53
2018-12-12T00:28:15.159Z,102.03
2018-12-12T00:30:22.474Z,109.93
2018-12-12T00:32:29.660Z,110.97
2018-12-12T00:34:36.522Z,110.10
2018-12-12T00:36:44.070Z,104.03
2018-12-12T00:38:51.095Z,99.93
2018-12-12T00:40:58.420Z,111.87
2018-12-12T00:43:05.188Z,105.47
2018-12-12T00:45:13.757Z,112.20
2018-12-12T00:47:20.897Z,110.60
2018-12-12T00:49:28.288Z,113.50
2018-12-12T00:51:35.437Z,116.43
2018-12-12T00:53:43.951Z,109.97
2018-12-12T00:55:51.177Z,115.13
2018-12-12T00:57:58.290Z,110.90
2018-12-12T01:00:09.366Z,104.80
2018-12-12T01:02:16.258Z,103.73
2018-12-12T01:04:23.595Z,114.70
2018-12-12T01:06:31.944Z,117.03
2018-12-12T01:08:39.022Z,120.83
2018-12-12T01:10:47.302Z,121.33
2018-12-12T01:12:55.103Z,127.37
2018-12-12T01:19:40.255Z,131.00
2018-12-12T01:26:16.864Z,114.30
2018-12-12T01:30:45.909Z,107.30
2018-12-12T01:37:41.792Z,107.73
2018-12-12T01:39:57.446Z,108.17
2018-12-12T01:42:12.414Z,115.60
2018-12-12T01:51:46.758Z,118.07
2018-12-12T02:21:02.476Z,126.47
2018-12-12T03:03:28.700Z,130.93
2018-12-12T03:15:33.921Z,133.60
2018-12-12T03:24:18.717Z,130.70
2018-12-12T03:31:06.163Z,108.33
2018-12-12T03:37:40.889Z,105.30
2018-12-12T03:44:18.783Z,98.53
2018-12-12T03:55:22.701Z,118.40
2018-12-12T03:59:44.878Z,127.03
2018-12-12T04:01:53.514Z,129.60
2018-12-12T04:04:00.288Z,127.90
2018-12-12T04:06:07.274Z,130.07
2018-12-12T04:08:14.340Z,133.00
2018-12-12T04:10:21.421Z,132.47
2018-12-12T04:12:28.839Z,133.07
2018-12-12T04:14:35.786Z,132.70
2018-12-12T04:16:42.930Z,134.77
2018-12-12T04:18:49.837Z,128.83
2018-12-12T04:20:57.050Z,131.07
2018-12-12T04:23:04.754Z,128.30
2018-12-12T04:25:12.121Z,137.10
2018-12-12T04:27:19.039Z,130.43
2018-12-12T04:29:26.685Z,129.30
2018-12-12T04:31:33.928Z,135.60
2018-12-12T04:33:41.272Z,136.07
2018-12-12T04:35:48.526Z,133.13
2018-12-12T04:37:55.397Z,131.97
2018-12-12T04:40:02.119Z,121.03
2018-12-12T04:42:09.434Z,111.23
2018-12-12T04:44:16.170Z,115.30
2018-12-12T04:46:22.976Z,113.17
2018-12-12T04:48:29.856Z,121.17
2018-12-12T04:50:37.073Z,118.47
2018-12-12T04:52:44.118Z,112.20
2018-12-12T04:54:50.902Z,115.80
2018-12-12T04:56:58.117Z,104.77
2018-12-12T04:59:05.219Z,101.43
2018-12-12T05:01:12.042Z,100.53
2018-12-12T05:03:19.924Z,103.80
2018-12-12T05:05:26.760Z,115.37
2018-12-12T05:07:33.730Z,121.63
2018-12-12T05:09:40.450Z,126.20
2018-12-12T05:11:47.221Z,126.53
2018-12-12T05:13:53.981Z,130.23
2018-12-12T05:16:00.984Z,129.27
2018-12-12T05:18:07.706Z,130.73
2018-12-12T05:20:14.646Z,133.90
2018-12-12T05:22:21.917Z,135.13
2018-12-12T05:24:28.863Z,131.77
2018-12-12T05:26:35.933Z,130.90
2018-12-12T05:28:42.716Z,135.47
2018-12-12T05:30:49.146Z,133.07
2018-12-12T05:32:56.106Z,131.27
2018-12-12T05:35:02.912Z,131.20
2018-12-12T05:37:09.944Z,129.47
2018-12-12T05:39:17.616Z,131.53
2018-12-12T05:41:24.721Z,137.23
2018-12-12T05:43:31.277Z,138.63
2018-12-12T05:45:38.576Z,139.03
2018-12-12T05:47:45.407Z,134.90
2018-12-12T05:49:52.072Z,136.83
2018-12-12T05:51:58.837Z,127.70
2018-12-12T05:54:06.195Z,115.73
2018-12-12T05:56:14.295Z,110.77
2018-12-12T05:58:21.170Z,107.07
2018-12-12T06:00:28.199Z,105.13
2018-12-12T06:02:35.144Z,104.63
2018-12-12T06:04:42.041Z,112.90
2018-12-12T06:06:48.895Z,125.30
2018-12-12T06:08:55.683Z,133.53
2018-12-12T06:11:02.369Z,126.90
2018-12-12T06:13:09.318Z,136.03
2018-12-12T06:15:16.172Z,135.27
2018-12-12T06:17:22.789Z,139.03
2018-12-12T06:19:30.080Z,139.33
2018-12-12T06:21:36.900Z,140.03
2018-12-12T06:23:43.926Z,139.30
2018-12-12T06:25:50.709Z,141.30
2018-12-12T06:27:57.469Z,142.17
2018-12-12T06:30:04.877Z,145.47
2018-12-12T06:32:11.637Z,144.00
2018-12-12T06:34:18.282Z,144.90
2018-12-12T06:36:25.197Z,142.23
2018-12-12T06:38:32.299Z,137.40
2018-12-12T06:40:39.328Z,131.90
2018-12-12T06:42:45.995Z,123.87
2018-12-12T06:44:53.131Z,112.67
2018-12-12T06:47:00.666Z,106.97
2018-12-12T06:49:07.647Z,106.17
2018-12-12T06:51:14.270Z,107.70
2018-12-12T06:53:20.820Z,104.27
2018-12-12T06:55:27.693Z,113.03
2018-12-12T06:57:34.787Z,117.03
2018-12-12T06:59:41.833Z,126.63
2018-12-12T07:01:48.846Z,131.53
2018-12-12T07:03:55.801Z,132.93
2018-12-12T07:06:02.450Z,135.33
2018-12-12T07:08:09.366Z,136.70
2018-12-12T07:10:16.444Z,135.40
2018-12-12T07:12:23.469Z,138.10
2018-12-12T07:14:30.445Z,139.90
2018-12-12T07:16:37.418Z,140.40
2018-12-12T07:18:44.788Z,142.30
2018-12-12T07:20:51.514Z,144.30
2018-12-12T07:22:58.333Z,144.93
2018-12-12T07:25:05.358Z,143.60
2018-12-12T07:27:12.157Z,146.60
2018-12-12T07:29:19.110Z,143.03
2018-12-12T07:31:25.786Z,139.33
2018-12-12T07:33:32.889Z,128.90
2018-12-12T07:35:39.713Z,119.83
2018-12-12T07:37:46.760Z,114.10
2018-12-12T07:39:54.459Z,109.17
2018-12-12T07:42:02.282Z,106.83
2018-12-12T07:44:09.125Z,108.53
2018-12-12T07:46:16.294Z,115.83
2018-12-12T07:48:23.274Z,120.03
2018-12-12T07:50:30.741Z,131.60
2018-12-12T07:52:37.538Z,131.47
2018-12-12T07:54:44.226Z,134.10
2018-12-12T07:56:51.421Z,135.10
2018-12-12T07:58:58.294Z,139.53
2018-12-12T08:01:05.346Z,136.93
2018-12-12T08:03:12.094Z,141.67
2018-12-12T08:05:19.005Z,143.63
2018-12-12T08:07:25.886Z,151.27
2018-12-12T08:09:33.013Z,147.30
2018-12-12T08:11:40.035Z,150.13
2018-12-12T08:13:46.758Z,146.77
2018-12-12T08:15:53.617Z,149.43
2018-12-12T08:18:00.462Z,147.23
2018-12-12T08:20:07.485Z,149.10
2018-12-12T08:22:14.135Z,150.67
2018-12-12T08:24:21.157Z,152.80
2018-12-12T08:26:28.322Z,153.03
2018-12-12T08:28:35.079Z,145.30
2018-12-12T08:30:41.853Z,145.30
2018-12-12T08:32:48.582Z,126.13
2018-12-12T08:34:55.263Z,121.80
2018-12-12T08:37:02.705Z,116.10
2018-12-12T08:39:10.290Z,108.57
2018-12-12T08:41:16.914Z,108.00
2018-12-12T08:43:23.625Z,104.43
2018-12-12T08:45:30.629Z,104.97
2018-12-12T08:47:38.063Z,104.60
2018-12-12T08:49:44.898Z,120.17
2018-12-12T08:51:51.847Z,117.23
2018-12-12T08:53:58.711Z,123.30
2018-12-12T08:56:06.078Z,122.50
2018-12-12T08:58:12.889Z,134.67
2018-12-12T09:00:19.867Z,137.90
2018-12-12T09:02:26.686Z,138.33
2018-12-12T09:04:33.457Z,129.40
2018-12-12T09:06:40.690Z,120.47
2018-12-12T09:08:48.227Z,110.90
2018-12-12T09:10:55.009Z,106.53
2018-12-12T09:13:01.727Z,105.37
2018-12-12T09:15:08.930Z,104.87
2018-12-12T09:17:15.860Z,104.07
2018-12-12T09:19:22.886Z,101.50
2018-12-12T09:21:30.424Z,102.30
2018-12-12T09:23:38.322Z,100.33
2018-12-12T09:25:45.192Z,101.57
2018-12-12T09:27:52.002Z,115.87
2018-12-12T09:29:59.106Z,115.53
2018-12-12T09:32:05.850Z,122.73
2018-12-12T09:34:12.745Z,132.93
2018-12-12T09:36:19.961Z,131.73
2018-12-12T09:38:27.121Z,137.53
2018-12-12T09:40:34.081Z,137.97
2018-12-12T09:42:40.615Z,138.37
2018-12-12T09:44:47.622Z,138.33
2018-12-12T09:46:54.854Z,137.27
2018-12-12T09:49:01.762Z,139.67
2018-12-12T09:51:08.631Z,139.83
2018-12-12T09:53:15.661Z,137.73
2018-12-12T09:55:22.390Z,143.17
2018-12-12T09:57:29.280Z,140.17
2018-12-12T09:59:36.011Z,141.30
2018-12-12T10:01:42.838Z,128.63
2018-12-12T10:03:53.174Z,112.10
2018-12-12T10:06:00.230Z,112.23
2018-12-12T10:08:07.062Z,111.83
2018-12-12T10:10:14.080Z,106.57
2018-12-12T10:12:21.087Z,102.23
2018-12-12T10:14:27.678Z,117.03
2018-12-12T10:16:34.502Z,115.60
2018-12-12T10:18:41.491Z,120.87
2018-12-12T10:20:48.375Z,110.27
2018-12-12T10:22:55.226Z,106.47
2018-12-12T10:25:02.139Z,103.07
2018-12-12T10:27:09.602Z,100.10
2018-12-12T10:29:17.033Z,99.43
2018-12-12T10:31:24.338Z,98.50
2018-12-12T10:33:37.439Z,121.70
2018-12-12T10:35:40.493Z,117.80
2018-12-12T10:37:47.510Z,127.17
2018-12-12T10:39:54.296Z,137.83
2018-12-12T10:42:01.045Z,134.07
2018-12-12T10:44:07.966Z,138.90
2018-12-12T10:46:14.735Z,138.17
2018-12-12T10:48:22.697Z,141.57
2018-12-12T10:50:29.861Z,140.90
2018-12-12T10:52:37.160Z,143.80
2018-12-12T10:54:43.973Z,143.67
2018-12-12T10:56:50.730Z,142.63
2018-12-12T10:58:57.649Z,143.37
2018-12-12T11:01:08.806Z,145.17
2018-12-12T11:03:52.656Z,142.63
2018-12-12T11:05:59.375Z,144.60
2018-12-12T11:08:06.410Z,146.07
2018-12-12T11:10:13.182Z,142.77
2018-12-12T11:12:20.124Z,144.90
2018-12-12T11:14:26.870Z,146.23
2018-12-12T11:16:33.812Z,144.87
2018-12-12T11:18:40.623Z,140.20
2018-12-12T11:20:47.325Z,139.30
2018-12-12T11:22:54.877Z,119.43
2018-12-12T11:25:01.929Z,111.43
2018-12-12T11:27:08.626Z,110.47
2018-12-12T11:29:15.326Z,110.23
2018-12-12T11:31:22.162Z,105.20
2018-12-12T11:33:28.874Z,103.40
2018-12-12T11:35:35.927Z,106.87
2018-12-12T11:37:43.474Z,103.80
2018-12-12T11:39:50.289Z,103.77
2018-12-12T11:41:57.158Z,99.37
2018-12-12T11:44:03.849Z,96.67
2018-12-12T11:46:11.149Z,101.37
2018-12-12T11:48:17.982Z,119.33
2018-12-12T11:50:25.039Z,134.43
2018-12-12T11:52:31.757Z,131.83
2018-12-12T11:54:38.742Z,137.13
2018-12-12T11:56:45.634Z,140.07
2018-12-12T11:58:52.669Z,141.73
2018-12-12T12:01:00.123Z,142.17
2018-12-12T12:03:06.377Z,138.13
2018-12-12T12:05:13.318Z,145.13
2018-12-12T12:07:20.225Z,138.93
2018-12-12T12:09:27.270Z,148.77
2018-12-12T12:11:33.940Z,142.60
2018-12-12T12:13:40.586Z,144.40
2018-12-12T12:15:47.454Z,144.90
2018-12-12T12:17:54.371Z,151.13
2018-12-12T12:20:01.138Z,147.47
2018-12-12T12:22:07.906Z,149.63
2018-12-12T12:24:14.610Z,151.17
2018-12-12T12:26:21.971Z,146.93
2018-12-12T12:28:28.917Z,143.17
2018-12-12T12:30:35.895Z,121.17
2018-12-12T12:32:42.737Z,116.20
2018-12-12T12:34:49.791Z,111.73
2018-12-12T12:36:57.694Z,112.03
2018-12-12T12:39:05.918Z,108.47
2018-12-12T12:41:13.481Z,104.63
2018-12-12T12:43:20.436Z,110.20
2018-12-12T12:45:29.179Z,101.47
2018-12-12T12:47:36.152Z,99.93
2018-12-12T12:49:43.053Z,104.73
2018-12-12T12:51:49.775Z,100.77
2018-12-12T12:53:57.327Z,100.63
2018-12-12T12:56:04.272Z,99.23
2018-12-12T12:58:11.070Z,100.20
2018-12-12T13:00:17.833Z,97.17
2018-12-12T13:02:25.390Z,96.77
2018-12-12T13:04:32.579Z,95.53
2018-12-12T13:06:39.341Z,96.57
2018-12-12T13:08:46.276Z,98.40
2018-12-12T13:10:53.101Z,96.97
2018-12-12T13:13:00.334Z,97.93
2018-12-12T13:15:07.666Z,95.30
2018-12-12T13:17:15.103Z,95.10
2018-12-12T13:19:21.953Z,94.30
2018-12-12T13:21:28.693Z,91.20
2018-12-12T13:23:35.630Z,91.27
2018-12-12T13:25:42.966Z,129.63
2018-12-12T13:27:49.903Z,98.03
2018-12-12T13:29:57.480Z,109.17
2018-12-12T13:32:04.341Z,115.70
2018-12-12T13:34:16.231Z,112.70
2018-12-12T13:36:20.270Z,127.10
2018-12-12T13:38:27.286Z,137.17
2018-12-12T13:40:33.942Z,127.10
2018-12-12T13:42:41.002Z,131.20
2018-12-12T13:44:47.826Z,132.77
2018-12-12T13:46:54.705Z,132.57
2018-12-12T13:49:01.673Z,139.13
2018-12-12T13:51:08.619Z,135.97
2018-12-12T13:53:15.601Z,136.27
2018-12-12T13:55:22.476Z,132.00
2018-12-12T13:57:29.146Z,138.50
2018-12-12T13:59:36.201Z,136.97
2018-12-12T14:01:43.185Z,114.53
2018-12-12T14:03:50.029Z,109.20
2018-12-12T14:05:56.994Z,100.33
2018-12-12T14:08:03.727Z,105.43
2018-12-12T14:10:10.341Z,101.10
2018-12-12T14:12:17.658Z,101.47
2018-12-12T14:14:24.287Z,99.37
2018-12-12T14:16:31.084Z,100.90
2018-12-12T14:18:37.964Z,99.93
2018-12-12T14:20:44.707Z,91.00
2018-12-12T14:22:51.553Z,88.47
2018-12-12T14:24:58.493Z,91.40
2018-12-12T14:27:05.261Z,92.13
2018-12-12T14:29:12.401Z,114.43
2018-12-12T14:31:19.078Z,113.67
2018-12-12T14:33:25.925Z,122.53
2018-12-12T14:35:32.783Z,130.13
2018-12-12T14:37:39.496Z,130.63
2018-12-12T14:39:46.452Z,133.37
2018-12-12T14:41:53.654Z,134.83
2018-12-12T14:44:00.375Z,132.97
2018-12-12T14:46:07.283Z,135.50
2018-12-12T14:48:14.499Z,132.63
2018-12-12T14:50:21.435Z,135.93
2018-12-12T14:52:28.224Z,141.77
2018-12-12T14:54:35.260Z,141.70
2018-12-12T14:56:42.604Z,142.57
2018-12-12T14:58:49.671Z,141.10
2018-12-12T15:00:56.490Z,139.03
2018-12-12T15:03:03.659Z,141.30
2018-12-12T15:05:10.543Z,139.77
2018-12-12T15:07:17.554Z,146.20
2018-12-12T15:09:24.514Z,143.90
2018-12-12T15:11:31.394Z,145.73
2018-12-12T15:13:38.193Z,147.63
2018-12-12T15:15:44.871Z,153.47
2018-12-12T15:17:51.754Z,155.83
2018-12-12T15:19:58.610Z,153.40
2018-12-12T15:22:05.525Z,156.40
2018-12-12T15:24:12.182Z,161.60
2018-12-12T15:26:19.038Z,160.63
2018-12-12T15:28:26.142Z,159.30
2018-12-12T15:30:33.445Z,165.27
2018-12-12T15:32:40.516Z,166.73
2018-12-12T15:34:47.447Z,162.43
2018-12-12T15:36:54.102Z,161.93
2018-12-12T15:39:00.887Z,162.80
2018-12-12T15:41:07.732Z,164.93
2018-12-12T15:43:14.630Z,162.57
2018-12-12T15:45:21.505Z,167.17
2018-12-12T15:47:28.406Z,172.80
2018-12-12T15:49:35.255Z,165.23
2018-12-12T15:51:42.055Z,169.20
2018-12-12T15:53:48.861Z,171.40
2018-12-12T15:55:55.544Z,172.20
2018-12-12T15:59:06.779Z,171.70
2018-12-12T16:01:13.768Z,143.17
2018-12-12T16:03:20.750Z,136.77
2018-12-12T16:05:27.863Z,126.03
2018-12-12T16:07:34.685Z,122.63
2018-12-12T16:09:42.522Z,122.80
2018-12-12T16:11:49.386Z,118.73
2018-12-12T16:13:56.167Z,119.33
2018-12-12T16:16:03.861Z,117.37
2018-12-12T16:18:10.628Z,116.57
2018-12-12T16:20:17.345Z,115.63
2018-12-12T16:22:24.331Z,115.73
2018-12-12T16:24:31.131Z,115.63
2018-12-12T16:26:37.789Z,114.60
2018-12-12T16:28:45.147Z,112.67
2018-12-12T16:30:51.767Z,112.73
2018-12-12T16:33:00.154Z,112.77
2018-12-12T16:35:07.606Z,105.17
2018-12-12T16:37:15.009Z,108.67
2018-12-12T16:39:22.126Z,103.77
2018-12-12T16:41:29.038Z,100.97
2018-12-12T16:43:35.827Z,88.60
2018-12-12T16:45:42.694Z,82.33
2018-12-12T16:47:49.573Z,77.77
2018-12-12T16:49:57.181Z,76.10
2018-12-12T16:52:04.154Z,71.97
2018-12-12T16:54:11.042Z,69.87
2018-12-12T16:56:18.050Z,70.87
2018-12-12T16:58:25.849Z,69.00
2018-12-12T17:00:33.179Z,68.17
2018-12-12T17:02:39.869Z,62.70
2018-12-12T17:04:46.747Z,63.40
2018-12-12T17:06:53.354Z,63.67
2018-12-12T17:09:00.259Z,61.10
2018-12-12T17:11:07.835Z,60.23
2018-12-12T17:13:15.250Z,61.20
2018-12-12T17:15:22.119Z,59.23
2018-12-12T17:17:28.729Z,59.37
2018-12-12T17:19:35.495Z,58.83
2018-12-12T17:21:42.805Z,58.50
2018-12-12T17:23:49.447Z,58.43
2018-12-12T17:25:56.353Z,60.20
2018-12-12T17:28:03.221Z,57.77
2018-12-12T17:30:10.511Z,58.47
2018-12-12T17:32:17.223Z,59.13
2018-12-12T17:34:24.939Z,56.43
2018-12-12T17:36:32.073Z,56.83
2018-12-12T17:38:39.025Z,57.43
2018-12-12T17:40:45.835Z,55.17
2018-12-12T17:42:52.691Z,55.97
2018-12-12T17:44:59.527Z,55.63
2018-12-12T17:47:06.458Z,55.13
2018-12-12T17:49:13.478Z,54.43
2018-12-12T17:51:20.286Z,54.37
2018-12-12T17:53:27.213Z,54.10
2018-12-12T17:55:33.989Z,55.57
2018-12-12T17:57:41.081Z,53.87
2018-12-12T17:59:47.858Z,53.93
2018-12-12T18:01:54.860Z,53.07
2018-12-12T18:04:01.712Z,52.23
2018-12-12T18:06:08.400Z,51.90
2018-12-12T18:08:15.092Z,51.97
2018-12-12T18:10:21.957Z,51.50
2018-12-12T18:12:29.056Z,50.00
2018-12-12T18:14:35.813Z,49.13
2018-12-12T18:16:42.945Z,48.57
2018-12-12T18:18:49.806Z,46.27
2018-12-12T18:20:56.699Z,46.50
2018-12-12T18:23:03.711Z,42.73
2018-12-12T18:25:10.521Z,43.23
2018-12-12T18:27:17.287Z,42.83
2018-12-12T18:29:25.030Z,41.27
2018-12-12T18:31:31.833Z,40.37
2018-12-12T18:33:39.070Z,40.07
2018-12-12T18:35:45.795Z,41.23
2018-12-12T18:37:52.838Z,39.27
2018-12-12T18:39:59.674Z,37.53
2018-12-12T18:42:06.385Z,39.30
2018-12-12T18:44:13.093Z,39.37
2018-12-12T18:46:20.501Z,38.87
2018-12-12T18:48:27.373Z,37.50
2018-12-12T18:50:35.089Z,38.13
2018-12-12T18:52:41.773Z,37.27
2018-12-12T18:54:48.985Z,37.77
2018-12-12T18:56:56.610Z,37.67
2018-12-12T18:59:03.361Z,36.93
2018-12-12T19:01:10.312Z,36.93
2018-12-12T19:03:17.065Z,37.33
2018-12-12T19:05:28.279Z,38.53
2018-12-12T19:07:33.041Z,36.67
2018-12-12T19:09:39.832Z,39.90
2018-12-12T19:11:47.083Z,37.83
2018-12-12T19:13:53.950Z,40.90
2018-12-12T19:16:00.610Z,45.07
2018-12-12T19:18:07.494Z,46.13
2018-12-12T19:20:14.058Z,46.33
2018-12-12T19:22:20.706Z,47.97
2018-12-12T19:24:27.606Z,47.87
2018-12-12T19:26:34.510Z,48.77
2018-12-12T19:28:41.395Z,48.27
2018-12-12T19:30:48.463Z,46.17
2018-12-12T19:32:55.870Z,45.73
2018-12-12T19:35:02.690Z,46.60
2018-12-12T19:37:09.434Z,45.93
2018-12-12T19:39:16.298Z,45.20
2018-12-12T19:41:23.412Z,44.33
2018-12-12T19:43:30.301Z,45.50
2018-12-12T19:45:37.042Z,45.33
2018-12-12T19:47:43.888Z,44.60
2018-12-12T19:49:50.941Z,42.90
2018-12-12T19:51:57.633Z,44.17
2018-12-12T19:54:04.333Z,42.67
2018-12-12T19:56:11.300Z,43.40
2018-12-12T19:58:18.309Z,42.53
2018-12-12T20:00:25.067Z,40.30
2018-12-12T20:02:31.758Z,40.67
2018-12-12T20:04:38.754Z,39.97
2018-12-12T20:06:45.517Z,39.90
2018-12-12T20:08:52.514Z,40.10
2018-12-12T20:10:59.524Z,39.43
2018-12-12T20:13:06.028Z,38.00
2018-12-12T20:15:16.578Z,37.37
2018-12-12T20:17:23.364Z,37.87
2018-12-12T20:19:30.189Z,37.90
2018-12-12T20:21:36.873Z,37.60
2018-12-12T20:23:43.581Z,37.33
2018-12-12T20:25:50.635Z,35.47
2018-12-12T20:27:57.433Z,36.03
2018-12-12T20:30:04.285Z,34.40
2018-12-12T20:32:11.125Z,33.97
2018-12-12T20:34:18.062Z,33.80
2018-12-12T20:36:24.656Z,31.63
2018-12-12T20:38:31.267Z,31.60
2018-12-12T20:40:38.234Z,29.97
2018-12-12T20:42:44.951Z,29.43
2018-12-12T20:44:51.784Z,28.23
2018-12-12T20:46:58.379Z,28.63
2018-12-12T20:49:06.330Z,28.27
2018-12-12T20:51:13.264Z,27.80
2018-12-12T20:53:19.902Z,27.67
2018-12-12T20:55:26.936Z,28.10
2018-12-12T20:57:34.403Z,27.03
2018-12-12T20:59:41.247Z,27.97
2018-12-12T21:01:48.265Z,27.43
2018-12-12T21:03:55.225Z,26.43
2018-12-12T21:06:03.086Z,26.27
2018-12-12T21:08:10.117Z,26.93
2018-12-12T21:10:17.004Z,24.67
2018-12-12T21:12:23.929Z,26.53
2018-12-12T21:14:30.910Z,24.83
2018-12-12T21:16:37.863Z,26.43
2018-12-12T21:18:44.711Z,24.60
2018-12-12T21:20:51.486Z,25.67
2018-12-12T21:22:58.145Z,26.57
2018-12-12T21:25:04.991Z,25.57
2018-12-12T21:27:12.147Z,24.57
2018-12-12T21:29:19.072Z,24.17
2018-12-12T21:31:25.698Z,24.27
2018-12-12T21:33:32.386Z,25.53
2018-12-12T21:35:39.173Z,22.93
2018-12-12T21:37:45.911Z,24.10
2018-12-12T21:39:52.629Z,24.20
2018-12-12T21:41:59.885Z,23.43
2018-12-12T21:44:06.835Z,23.70
2018-12-12T21:46:13.994Z,22.80
2018-12-12T21:48:20.975Z,22.90
2018-12-12T21:50:27.762Z,20.63
2018-12-12T21:52:34.505Z,20.57
2018-12-12T21:54:41.252Z,20.40
2018-12-12T21:56:48.486Z,20.47
2018-12-12T21:58:55.141Z,19.40
2018-12-12T22:01:02.402Z,19.23
2018-12-12T22:03:09.307Z,19.80
2018-12-12T22:05:16.488Z,19.10
2018-12-12T22:07:23.368Z,19.33
2018-12-12T22:09:30.547Z,19.17
2018-12-12T22:11:37.409Z,18.37
2018-12-12T22:13:44.277Z,17.17
2018-12-12T22:15:51.021Z,17.27
2018-12-12T22:17:57.937Z,16.83
2018-12-12T22:20:04.915Z,16.97
2018-12-12T22:22:11.848Z,16.87
2018-12-12T22:24:18.663Z,17.30
2018-12-12T22:26:25.564Z,21.23
2018-12-12T22:28:32.437Z,31.93
2018-12-12T22:30:39.339Z,36.53
2018-12-12T22:32:45.947Z,39.13
2018-12-12T22:34:52.596Z,37.87
2018-12-12T22:36:59.364Z,48.33
2018-12-12T22:39:08.108Z,51.40
2018-12-12T22:41:15.375Z,56.67
2018-12-12T22:43:22.070Z,52.93
2018-12-12T22:45:28.885Z,60.50
2018-12-12T22:47:35.610Z,52.60
2018-12-12T22:49:42.630Z,53.37
2018-12-12T22:51:49.440Z,57.80
2018-12-12T22:53:56.373Z,54.50
2018-12-12T22:56:03.366Z,64.07
2018-12-12T22:58:10.181Z,62.27
2018-12-12T23:00:22.566Z,60.23
2018-12-12T23:02:29.308Z,64.53
2018-12-12T23:04:36.071Z,75.08
2018-12-12T23:06:43.102Z,73.33
2018-12-12T23:08:50.022Z,71.57
2018-12-12T23:10:57.270Z,76.93
2018-12-12T23:13:03.896Z,69.20
2018-12-12T23:15:11.362Z,83.20
2018-12-12T23:17:18.457Z,71.67
2018-12-12T23:19:25.273Z,77.33
2018-12-12T23:21:32.345Z,78.03
2018-12-12T23:23:39.033Z,81.17
2018-12-12T23:25:45.726Z,83.23
2018-12-12T23:27:52.852Z,86.23
2018-12-12T23:29:59.532Z,85.13
2018-12-12T23:32:07.062Z,89.13
2018-12-12T23:34:13.924Z,88.20
2018-12-12T23:36:26.797Z,93.27
2018-12-12T23:38:30.229Z,87.30
2018-12-12T23:40:36.945Z,91.07
2018-12-12T23:42:44.038Z,77.43
2018-12-12T23:44:51.606Z,87.87
2018-12-12T23:46:58.651Z,76.20
2018-12-12T23:49:05.455Z,73.40
2018-12-12T23:51:12.462Z,86.77
2018-12-12T23:53:19.612Z,75.60
2018-12-12T23:55:26.746Z,84.10
2018-12-12T23:57:33.313Z,84.27
2018-12-12T23:59:40.042Z,91.67
